Time;durP1;ratioP1;P1;durP2;ratioP2;P2;SDS_P1;SDS_P2;PMS_P1;PMS_P2;Temp;Humidity;BMP_temperature;BMP_pressure;BME280_temperature;BME280_humidity;BME280_pressure;Samples;Min_cycle;Max_cycle;Signal;HPM_P1;HPM_P2
2021/03/23 00:02:11;;;;;;;28.27;18.90;;;7.00;80.70;;;;;;5133751;27;20055;-76
2021/03/23 00:04:36;;;;;;;21.42;17.58;;;7.00;80.80;;;;;;5118879;27;20117;-76
2021/03/23 00:07:02;;;;;;;26.17;19.20;;;6.90;81.00;;;;;;5117008;27;20037;-76
2021/03/23 00:09:27;;;;;;;26.20;18.52;;;6.90;81.10;;;;;;5117134;27;20479;-76
2021/03/23 00:11:53;;;;;;;25.65;18.10;;;7.00;81.10;;;;;;5137120;27;20073;-76
2021/03/23 00:14:19;;;;;;;25.58;18.65;;;7.00;81.10;;;;;;5096369;28;20024;-76
2021/03/23 00:16:45;;;;;;;25.05;18.30;;;7.00;81.10;;;;;;5122091;27;20817;-76
2021/03/23 00:19:13;;;;;;;26.95;19.52;;;7.00;81.10;;;;;;5136069;27;20027;-76
2021/03/23 00:21:39;;;;;;;26.38;16.75;;;6.90;81.10;;;;;;5117469;27;20030;-76
2021/03/23 00:24:05;;;;;;;22.83;17.95;;;7.00;81.20;;;;;;5117339;27;20084;-76
2021/03/23 00:26:46;;;;;;;25.70;17.92;;;7.00;81.30;;;;;;5118243;27;20023;-76
2021/03/23 00:29:12;;;;;;;29.05;19.05;;;7.00;81.40;;;;;;5100173;27;20392;-76
2021/03/23 00:31:38;;;;;;;27.98;19.98;;;7.00;81.40;;;;;;5116812;27;20103;-76
2021/03/23 00:34:05;;;;;;;27.38;19.92;;;7.00;81.30;;;;;;5134288;27;20384;-76
2021/03/23 00:36:41;;;;;;;26.77;20.08;;;7.00;81.20;;;;;;5133684;27;20023;-76
2021/03/23 00:39:10;;;;;;;25.17;18.77;;;7.00;81.10;;;;;;5096707;28;20032;-76
2021/03/23 00:41:44;;;;;;;24.63;17.80;;;7.00;81.10;;;;;;5128953;27;20019;-76
2021/03/23 00:44:13;;;;;;;28.90;19.48;;;7.00;81.20;;;;;;5116840;27;20277;-76
2021/03/23 00:46:39;;;;;;;27.63;17.67;;;7.00;81.10;;;;;;5134608;27;20031;-76
2021/03/23 00:49:04;;;;;;;24.17;18.08;;;7.00;80.90;;;;;;5134816;27;20130;-76
2021/03/23 00:51:30;;;;;;;25.70;17.48;;;7.00;80.90;;;;;;5097128;28;20119;-76
2021/03/23 00:53:56;;;;;;;25.40;18.98;;;7.00;80.80;;;;;;5108807;28;20599;-76
2021/03/23 00:56:21;;;;;;;24.48;17.73;;;7.00;80.80;;;;;;5097756;28;20169;-76
2021/03/23 00:58:47;;;;;;;22.40;16.80;;;7.00;80.60;;;;;;5130323;27;20039;-76
2021/03/23 01:01:12;;;;;;;21.38;17.40;;;7.00;80.60;;;;;;5115091;27;20041;-76
2021/03/23 01:03:38;;;;;;;27.73;18.42;;;7.10;80.70;;;;;;5106176;27;20033;-76
2021/03/23 01:06:04;;;;;;;24.65;19.10;;;7.00;80.50;;;;;;5116273;27;20039;-76
2021/03/23 01:08:29;;;;;;;23.55;18.02;;;7.00;80.20;;;;;;5110178;27;20050;-76
2021/03/23 01:10:55;;;;;;;24.75;18.40;;;7.00;80.00;;;;;;5121836;27;20035;-75
2021/03/23 01:13:20;;;;;;;23.73;18.52;;;7.00;80.20;;;;;;5115799;27;20028;-76
2021/03/23 01:15:46;;;;;;;26.45;18.33;;;7.00;80.40;;;;;;5117212;27;20055;-76
2021/03/23 01:18:12;;;;;;;24.27;18.48;;;7.00;80.50;;;;;;5116847;27;20368;-76
2021/03/23 01:20:37;;;;;;;23.98;17.98;;;7.00;80.50;;;;;;5100686;27;20054;-76
2021/03/23 01:23:03;;;;;;;27.13;18.65;;;7.00;80.50;;;;;;5130050;27;20476;-76
2021/03/23 01:25:29;;;;;;;23.80;18.08;;;7.00;80.60;;;;;;5096939;28;20396;-76
2021/03/23 01:27:55;;;;;;;23.52;16.85;;;7.00;80.60;;;;;;5129991;27;20115;-76
2021/03/23 01:30:24;;;;;;;27.15;17.77;;;7.00;80.70;;;;;;5116318;27;20059;-76
2021/03/23 01:32:50;;;;;;;22.23;18.00;;;7.00;80.70;;;;;;5115289;28;20063;-76
2021/03/23 01:35:16;;;;;;;22.38;18.13;;;7.00;80.60;;;;;;5115123;27;20067;-76
2021/03/23 01:37:42;;;;;;;25.70;18.88;;;7.00;80.60;;;;;;5116665;27;20383;-76
2021/03/23 01:40:10;;;;;;;23.77;17.48;;;7.00;80.60;;;;;;5105791;28;20027;-76
2021/03/23 01:42:42;;;;;;;23.47;17.43;;;7.00;80.70;;;;;;5106671;27;20099;-76
2021/03/23 01:45:19;;;;;;;22.23;18.05;;;7.00;80.70;;;;;;5129852;27;20031;-76
2021/03/23 01:47:45;;;;;;;22.83;17.77;;;7.00;80.70;;;;;;5109773;27;20023;-76
2021/03/23 01:50:11;;;;;;;28.08;18.65;;;7.00;80.70;;;;;;5134797;27;20054;-76
2021/03/23 01:52:37;;;;;;;30.98;19.58;;;7.00;80.50;;;;;;5115675;27;20031;-76
2021/03/23 01:55:07;;;;;;;25.65;19.75;;;7.00;80.60;;;;;;5095115;28;20041;-76
2021/03/23 01:57:35;;;;;;;25.92;18.98;;;7.00;80.60;;;;;;5116287;27;20060;-76
2021/03/23 02:00:04;;;;;;;26.63;19.42;;;7.00;80.60;;;;;;5110683;27;20391;-76
2021/03/23 02:02:30;;;;;;;24.30;19.88;;;7.00;80.70;;;;;;5116037;27;20034;-76
2021/03/23 02:04:56;;;;;;;29.17;20.33;;;6.90;80.80;;;;;;5112108;27;20038;-76
2021/03/23 02:07:22;;;;;;;28.02;20.40;;;6.90;80.90;;;;;;5133739;27;20023;-76
2021/03/23 02:09:51;;;;;;;27.35;18.83;;;6.90;80.80;;;;;;5115111;27;20070;-76
2021/03/23 02:12:21;;;;;;;24.38;18.00;;;6.90;80.70;;;;;;5126155;27;20024;-76
2021/03/23 02:14:47;;;;;;;;;;;6.90;80.70;;;;;;5118946;27;20031;-76
2021/03/23 02:17:19;;;;;;;23.55;17.55;;;6.90;80.60;;;;;;5117136;27;19922;-75
2021/03/23 02:19:45;;;;;;;26.27;18.27;;;6.90;80.80;;;;;;5133512;27;20103;-76
2021/03/23 02:22:35;;;;;;;31.38;20.58;;;6.90;80.80;;;;;;5115975;27;20475;-76
2021/03/23 02:25:05;;;;;;;26.40;19.40;;;7.00;80.80;;;;;;5113194;28;20039;-76
2021/03/23 02:27:30;;;;;;;24.05;17.63;;;6.90;80.70;;;;;;5114898;28;20036;-76
2021/03/23 02:29:59;;;;;;;29.63;20.42;;;6.90;80.70;;;;;;5114673;27;20033;-76
2021/03/23 02:32:25;;;;;;;27.48;18.60;;;6.90;80.80;;;;;;5133033;27;20067;-76
2021/03/23 02:34:50;;;;;;;26.65;18.83;;;6.90;80.70;;;;;;5133442;27;20438;-76
2021/03/23 02:37:17;;;;;;;29.33;20.83;;;7.00;80.70;;;;;;5101052;28;20031;-76
2021/03/23 02:39:43;;;;;;;25.42;18.60;;;6.90;80.60;;;;;;5107521;27;20101;-76
2021/03/23 02:42:09;;;;;;;29.30;18.55;;;7.00;80.60;;;;;;5134553;27;20039;-76
2021/03/23 02:44:44;;;;;;;31.60;18.52;;;7.00;80.60;;;;;;5114616;27;20046;-76
2021/03/23 02:47:10;;;;;;;23.90;17.00;;;7.00;80.50;;;;;;5107844;28;20054;-76
2021/03/23 02:49:36;;;;;;;21.42;16.92;;;7.00;80.30;;;;;;5113830;27;20502;-76
2021/03/23 02:52:03;;;;;;;22.10;17.60;;;7.00;80.30;;;;;;5105087;27;20042;-76
2021/03/23 02:54:29;;;;;;;25.23;18.75;;;7.10;80.40;;;;;;5097503;27;20019;-76
2021/03/23 02:56:54;;;;;;;25.90;18.77;;;7.00;80.30;;;;;;5114407;27;20494;-76
2021/03/23 02:59:20;;;;;;;22.83;17.00;;;7.10;80.30;;;;;;5098889;27;20023;-76
2021/03/23 03:01:46;;;;;;;30.13;18.35;;;7.10;80.30;;;;;;5114973;28;20107;-76
2021/03/23 03:04:11;;;;;;;26.15;18.42;;;7.10;80.10;;;;;;5115636;27;20042;-76
2021/03/23 03:06:37;;;;;;;25.42;18.30;;;7.00;79.90;;;;;;5131048;27;20122;-76
2021/03/23 03:09:03;;;;;;;23.55;18.23;;;7.10;79.90;;;;;;5134251;28;20476;-76
2021/03/23 03:11:29;;;;;;;28.30;19.00;;;7.10;79.70;;;;;;5130911;27;20488;-76
2021/03/23 03:13:54;;;;;;;23.10;18.08;;;7.10;79.70;;;;;;5125644;28;20023;-76
2021/03/23 03:16:20;;;;;;;26.33;18.63;;;7.00;79.60;;;;;;5088145;28;20037;-76
2021/03/23 03:18:46;;;;;;;25.83;18.70;;;7.10;79.60;;;;;;5133225;28;20515;-76
2021/03/23 03:21:11;;;;;;;25.88;20.45;;;7.00;79.60;;;;;;5132823;28;20027;-76
2021/03/23 03:23:37;;;;;;;24.95;18.20;;;7.00;79.60;;;;;;5094081;28;20039;-76
2021/03/23 03:26:05;;;;;;;30.90;19.05;;;7.00;79.50;;;;;;5119475;27;20035;-76
2021/03/23 03:28:32;;;;;;;26.98;20.33;;;7.10;79.40;;;;;;5111069;28;20080;-76
2021/03/23 03:30:57;;;;;;;24.88;18.95;;;7.00;79.40;;;;;;5113743;28;20084;-76
2021/03/23 03:33:23;;;;;;;27.05;20.13;;;7.00;79.40;;;;;;5123166;28;20476;-76
2021/03/23 03:35:50;;;;;;;29.05;20.58;;;7.00;79.30;;;;;;5110205;28;20034;-76
2021/03/23 03:38:18;;;;;;;26.05;19.92;;;7.00;79.30;;;;;;5130276;27;20049;-76
2021/03/23 03:40:50;;;;;;;29.63;20.75;;;7.00;79.30;;;;;;5107936;27;20020;-76
2021/03/23 03:43:18;;;;;;;24.15;19.42;;;7.00;79.20;;;;;;5137956;27;20031;-76
2021/03/23 03:45:44;;;;;;;26.48;19.77;;;7.00;79.20;;;;;;5118343;27;20024;-76
2021/03/23 03:48:10;;;;;;;26.52;20.85;;;7.00;79.10;;;;;;5098410;28;20028;-76
2021/03/23 03:50:36;;;;;;;31.23;21.88;;;7.00;79.00;;;;;;5103233;27;20072;-76
2021/03/23 03:53:02;;;;;;;29.15;20.60;;;7.10;79.10;;;;;;5130803;27;20379;-76
2021/03/23 03:55:31;;;;;;;29.92;21.20;;;7.10;79.10;;;;;;5113616;27;20019;-76
2021/03/23 03:57:57;;;;;;;29.42;22.38;;;7.00;78.90;;;;;;5118467;27;20027;-76
2021/03/23 04:00:25;;;;;;;28.80;20.83;;;7.10;78.90;;;;;;5119446;27;20028;-76
2021/03/23 04:02:51;;;;;;;30.25;21.00;;;7.00;79.00;;;;;;5130799;27;20160;-76
2021/03/23 04:05:20;;;;;;;30.48;21.45;;;7.00;79.00;;;;;;5117029;27;20087;-76
2021/03/23 04:07:45;;;;;;;39.90;21.85;;;7.00;78.90;;;;;;5118702;27;20023;-76
2021/03/23 04:10:11;;;;;;;28.95;20.30;;;7.00;79.00;;;;;;5134568;27;20027;-76
2021/03/23 04:12:37;;;;;;;28.63;21.17;;;7.00;79.00;;;;;;5116831;27;20426;-76
2021/03/23 04:15:03;;;;;;;30.10;20.23;;;7.10;79.00;;;;;;5134151;27;20542;-76
2021/03/23 04:17:29;;;;;;;31.23;21.80;;;7.10;79.10;;;;;;5134322;27;20057;-76
2021/03/23 04:19:54;;;;;;;30.50;20.13;;;7.10;79.00;;;;;;5117706;27;20039;-76
2021/03/23 04:22:20;;;;;;;27.80;21.10;;;7.10;79.00;;;;;;5117910;27;20027;-76
2021/03/23 04:24:45;;;;;;;30.27;21.48;;;7.00;78.90;;;;;;5097355;27;20065;-76
2021/03/23 04:27:12;;;;;;;28.23;20.55;;;7.10;79.00;;;;;;5135217;27;20027;-76
2021/03/23 04:29:37;;;;;;;30.05;19.65;;;7.10;78.90;;;;;;5099898;27;20083;-75
2021/03/23 04:32:03;;;;;;;28.30;19.65;;;7.10;78.90;;;;;;5116947;27;20072;-76
2021/03/23 04:34:29;;;;;;;29.83;20.00;;;7.10;78.80;;;;;;5099314;27;20106;-76
2021/03/23 04:36:54;;;;;;;29.20;20.30;;;7.00;78.80;;;;;;5111348;28;20043;-76
2021/03/23 04:39:36;;;;;;;26.55;18.83;;;7.00;78.90;;;;;;5084247;27;20027;-76
2021/03/23 04:42:02;;;;;;;31.73;20.67;;;7.00;79.00;;;;;;5119603;27;20031;-76
2021/03/23 04:44:28;;;;;;;26.65;19.52;;;7.00;78.80;;;;;;5130132;27;20080;-76
2021/03/23 04:46:53;;;;;;;29.30;19.77;;;7.00;78.80;;;;;;5115749;27;20042;-76
2021/03/23 04:49:19;;;;;;;27.55;19.65;;;7.00;78.90;;;;;;5127214;27;20043;-76
2021/03/23 04:51:44;;;;;;;27.25;18.88;;;7.00;78.90;;;;;;5090312;27;20503;-76
2021/03/23 04:54:10;;;;;;;28.27;19.23;;;7.00;78.90;;;;;;5117212;27;20110;-76
2021/03/23 04:56:39;;;;;;;25.52;19.13;;;7.00;78.80;;;;;;5135890;27;20427;-76
2021/03/23 04:59:06;;;;;;;25.42;18.63;;;7.00;78.70;;;;;;5118125;27;20066;-76
2021/03/23 05:01:32;;;;;;;27.00;18.60;;;7.00;78.70;;;;;;5097741;27;20089;-76
2021/03/23 05:04:01;;;;;;;28.55;17.35;;;7.00;78.80;;;;;;5135339;27;20031;-76
2021/03/23 05:06:27;;;;;;;26.17;17.20;;;7.00;78.80;;;;;;5135980;27;20102;-76
2021/03/23 05:08:53;;;;;;;28.52;19.15;;;7.00;78.60;;;;;;5117898;27;20882;-76
2021/03/23 05:11:23;;;;;;;28.77;18.13;;;7.00;78.80;;;;;;5130178;27;20087;-76
2021/03/23 05:13:49;;;;;;;29.35;18.52;;;7.00;78.90;;;;;;5115444;27;20380;-76
2021/03/23 05:16:14;;;;;;;27.30;18.42;;;7.00;78.80;;;;;;5131376;27;20023;-76
2021/03/23 05:18:40;;;;;;;26.13;17.25;;;7.00;78.80;;;;;;5133652;27;20032;-76
2021/03/23 05:21:06;;;;;;;23.85;15.70;;;7.00;78.80;;;;;;5129338;27;20027;-76
2021/03/23 05:23:33;;;;;;;25.33;15.93;;;7.00;78.80;;;;;;5108369;28;20031;-76
2021/03/23 05:25:59;;;;;;;22.45;16.20;;;7.00;78.90;;;;;;5134517;27;20023;-76
2021/03/23 05:28:25;;;;;;;24.42;16.20;;;7.00;78.90;;;;;;5101759;27;20027;-76
2021/03/23 05:30:51;;;;;;;24.83;15.95;;;7.00;79.00;;;;;;5129111;27;20361;-76
2021/03/23 05:33:18;;;;;;;21.27;15.85;;;7.00;79.10;;;;;;5123376;27;20058;-76
2021/03/23 05:35:44;;;;;;;25.45;15.93;;;7.00;79.10;;;;;;5120520;27;20491;-76
2021/03/23 05:38:10;;;;;;;25.05;16.48;;;6.90;79.10;;;;;;5123164;27;20024;-76
2021/03/23 05:40:40;;;;;;;26.35;16.45;;;7.00;79.20;;;;;;5097202;27;20081;-76
2021/03/23 05:43:24;;;;;;;25.02;16.25;;;7.00;79.30;;;;;;5095328;27;20039;-76
2021/03/23 05:45:57;;;;;;;24.55;15.02;;;7.00;79.50;;;;;;5119228;27;20039;-76
2021/03/23 05:48:29;;;;;;;22.80;15.05;;;7.00;79.40;;;;;;5124830;27;20532;-76
2021/03/23 05:51:09;;;;;;;24.60;14.75;;;7.00;79.30;;;;;;5109608;27;20047;-76
2021/03/23 05:53:42;;;;;;;22.73;13.98;;;7.00;79.20;;;;;;5131709;27;20098;-77
2021/03/23 05:56:09;;;;;;;27.63;15.00;;;7.00;79.20;;;;;;5114163;27;20023;-76
2021/03/23 05:58:45;;;;;;;48.60;15.27;;;7.00;79.20;;;;;;5131109;27;20032;-77
2021/03/23 06:01:23;;;;;;;24.52;15.40;;;7.00;79.20;;;;;;5134643;27;20034;-77
2021/03/23 06:03:56;;;;;;;23.87;14.07;;;7.10;79.20;;;;;;5134142;27;20387;-76
2021/03/23 06:06:43;;;;;;;22.98;14.63;;;7.10;79.20;;;;;;5135128;27;20114;-76
2021/03/23 06:09:15;;;;;;;24.48;14.73;;;7.00;79.20;;;;;;5117544;27;20106;-76
2021/03/23 06:11:43;;;;;;;22.88;14.18;;;7.10;79.30;;;;;;5128240;27;20076;-76
2021/03/23 06:14:36;;;;;;;25.55;15.00;;;7.10;79.20;;;;;;5134529;27;20022;-77
2021/03/23 06:17:22;;;;;;;28.35;15.63;;;7.10;79.20;;;;;;5112782;27;20449;-76
2021/03/23 06:20:18;;;;;;;24.50;14.80;;;7.10;79.10;;;;;;5115779;27;20027;-77
2021/03/23 06:23:15;;;;;;;27.90;15.50;;;7.10;79.10;;;;;;5109481;28;20080;-77
2021/03/23 06:25:59;;;;;;;25.75;14.82;;;7.20;79.10;;;;;;5134104;27;20023;-78
2021/03/23 06:28:53;;;;;;;28.75;15.60;;;7.20;79.10;;;;;;5114359;28;20088;-78
2021/03/23 06:31:40;;;;;;;24.10;14.30;;;7.20;79.00;;;;;;5131316;27;20356;-77
2021/03/23 06:34:16;;;;;;;23.88;13.55;;;7.30;79.00;;;;;;5114824;27;20460;-77
2021/03/23 06:36:42;;;;;;;30.90;16.20;;;7.30;79.50;;;;;;5134371;27;20029;-77
2021/03/23 06:39:08;;;;;;;23.38;14.30;;;7.30;78.80;;;;;;5115078;27;20036;-77
2021/03/23 06:41:35;;;;;;;22.77;14.00;;;7.30;78.80;;;;;;5114214;27;20091;-77
2021/03/23 06:44:13;;;;;;;26.55;15.40;;;7.40;78.90;;;;;;5133287;27;20023;-77
2021/03/23 06:46:42;;;;;;;26.02;15.95;;;7.40;78.90;;;;;;5113823;28;20034;-77
2021/03/23 06:49:26;;;;;;;30.65;16.88;;;7.40;78.80;;;;;;5132718;27;20027;-77
2021/03/23 06:51:56;;;;;;;24.90;15.93;;;7.50;78.80;;;;;;5129396;27;20055;-77
2021/03/23 06:54:30;;;;;;;25.30;14.98;;;7.50;78.70;;;;;;5098200;27;20051;-76
2021/03/23 06:57:11;;;;;;;24.95;14.70;;;7.50;78.80;;;;;;5133905;27;20037;-77
2021/03/23 07:00:00;;;;;;;27.08;15.45;;;7.50;78.70;;;;;;5115336;28;20038;-77
2021/03/23 07:02:38;;;;;;;24.65;14.68;;;7.60;78.50;;;;;;5114433;28;20019;-77
2021/03/23 07:05:30;;;;;;;26.67;15.43;;;7.70;78.50;;;;;;5133705;27;20106;-77
2021/03/23 07:08:07;;;;;;;32.50;15.80;;;7.70;78.30;;;;;;5134110;27;20054;-77
2021/03/23 07:10:43;;;;;;;28.60;15.95;;;7.70;78.30;;;;;;5114723;28;20098;-77
2021/03/23 07:13:27;;;;;;;33.78;17.08;;;7.80;78.40;;;;;;5110820;28;20119;-77
2021/03/23 07:16:01;;;;;;;23.48;14.65;;;7.90;78.10;;;;;;5108717;28;20035;-77
2021/03/23 07:18:30;;;;;;;24.73;14.05;;;7.90;78.00;;;;;;5112193;28;20068;-77
2021/03/23 07:21:09;;;;;;;25.75;15.00;;;7.90;78.00;;;;;;5130989;27;20449;-77
2021/03/23 07:23:39;;;;;;;33.35;15.10;;;8.00;77.80;;;;;;5127298;27;20110;-77
2021/03/23 07:26:32;;;;;;;26.92;14.02;;;8.00;77.80;;;;;;5114782;28;20395;-77
2021/03/23 07:29:10;;;;;;;25.30;14.68;;;8.00;77.70;;;;;;5105196;28;20027;-77
2021/03/23 07:31:42;;;;;;;26.25;14.90;;;8.20;77.70;;;;;;5109499;28;20514;-77
2021/03/23 07:34:14;;;;;;;30.17;15.93;;;8.20;77.70;;;;;;5104741;28;20047;-76
2021/03/23 07:37:04;;;;;;;27.73;14.40;;;8.20;77.60;;;;;;5126081;27;20023;-77
2021/03/23 07:39:46;;;;;;;23.73;13.48;;;8.30;77.60;;;;;;5133526;28;20418;-76
2021/03/23 07:42:35;;;;;;;23.52;13.85;;;8.40;77.50;;;;;;5113314;27;20031;-77
2021/03/23 07:45:03;;;;;;;28.88;15.30;;;8.40;77.30;;;;;;5103217;28;20058;-76
2021/03/23 07:47:32;;;;;;;32.42;16.38;;;8.50;77.10;;;;;;5129189;27;20031;-77
2021/03/23 07:50:12;;;;;;;26.75;14.88;;;8.50;76.90;;;;;;5113803;28;20118;-77
2021/03/23 07:52:49;;;;;;;25.00;14.50;;;8.60;76.90;;;;;;5115879;28;20034;-76
2021/03/23 07:55:22;;;;;;;32.53;15.85;;;8.70;76.80;;;;;;5120575;28;20072;-77
2021/03/23 07:58:12;;;;;;;35.78;16.55;;;8.70;76.50;;;;;;5131233;27;20064;-77
2021/03/23 08:00:57;;;;;;;27.10;14.38;;;8.80;76.40;;;;;;5115878;28;20073;-77
2021/03/23 08:04:19;;;;;;;30.80;15.40;;;8.90;76.20;;;;;;5119574;27;20026;-77
2021/03/23 08:07:11;;;;;;;34.72;16.15;;;8.90;76.20;;;;;;5043746;28;20029;-77
2021/03/23 08:09:58;;;;;;;33.38;14.73;;;9.00;75.80;;;;;;5131129;28;20050;-77
2021/03/23 08:12:50;;;;;;;35.67;16.85;;;9.10;75.50;;;;;;5112815;28;20061;-77
2021/03/23 08:15:43;;;;;;;28.63;15.93;;;9.20;74.80;;;;;;5094585;28;20130;-77
2021/03/23 08:18:39;;;;;;;29.65;14.13;;;9.30;75.00;;;;;;5094726;28;20035;-77
2021/03/23 08:21:19;;;;;;;25.83;13.75;;;9.40;75.00;;;;;;5120123;28;20063;-77
2021/03/23 08:24:19;;;;;;;36.03;16.27;;;9.50;75.00;;;;;;5130291;27;20498;-77
2021/03/23 08:27:12;;;;;;;24.17;13.63;;;9.50;74.40;;;;;;5105765;27;20043;-77
2021/03/23 08:29:56;;;;;;;26.30;13.43;;;9.70;74.60;;;;;;5116709;27;20023;-77
2021/03/23 08:32:46;;;;;;;27.25;14.18;;;9.80;74.20;;;;;;5136298;27;20027;-77
2021/03/23 08:35:32;;;;;;;35.85;14.80;;;9.90;73.80;;;;;;5127863;27;20089;-77
2021/03/23 08:38:13;;;;;;;30.45;14.20;;;10.00;73.60;;;;;;5121623;27;20016;-77
2021/03/23 08:41:10;;;;;;;31.42;14.98;;;10.10;73.10;;;;;;5118224;27;20023;-77
2021/03/23 08:43:42;;;;;;;25.30;13.43;;;10.10;72.70;;;;;;5111193;27;20030;-77
2021/03/23 08:46:25;;;;;;;28.45;14.02;;;10.20;72.50;;;;;;5118014;27;20391;-76
2021/03/23 08:49:05;;;;;;;27.20;13.25;;;10.40;72.20;;;;;;5136205;27;20042;-77
2021/03/23 08:51:32;;;;;;;24.20;13.25;;;10.50;71.40;;;;;;5136389;27;20056;-77
2021/03/23 08:54:06;;;;;;;26.30;13.85;;;10.60;71.40;;;;;;5096805;27;20019;-83
2021/03/23 08:56:45;;;;;;;23.30;13.27;;;10.70;71.40;;;;;;5100697;27;20023;-83
2021/03/23 08:59:30;;;;;;;24.05;12.40;;;10.80;71.00;;;;;;5099979;27;20071;-82
2021/03/23 09:01:56;;;;;;;24.23;12.85;;;10.90;71.00;;;;;;5131709;27;20039;-82
2021/03/23 09:04:31;;;;;;;25.25;13.25;;;11.00;70.70;;;;;;5128138;27;20031;-82
2021/03/23 09:06:59;;;;;;;25.85;12.00;;;11.10;70.40;;;;;;5135857;27;20027;-82
2021/03/23 09:09:25;;;;;;;21.67;11.63;;;11.20;70.30;;;;;;5109092;28;20118;-82
2021/03/23 09:12:11;;;;;;;21.90;12.32;;;11.40;70.30;;;;;;5115796;28;20099;-82
2021/03/23 09:15:08;;;;;;;23.13;11.68;;;11.40;69.90;;;;;;5115726;28;20097;-81
2021/03/23 09:17:46;;;;;;;25.05;12.07;;;11.50;69.60;;;;;;5105384;27;20122;-83
2021/03/23 09:20:30;;;;;;;23.42;11.75;;;11.60;69.30;;;;;;5098744;27;20477;-83
2021/03/23 09:23:16;;;;;;;21.50;12.85;;;11.80;69.20;;;;;;5131480;27;20072;-84
2021/03/23 09:25:53;;;;;;;26.70;12.25;;;11.90;68.50;;;;;;5100123;27;20480;-82
2021/03/23 09:31:08;;;;;;;25.02;13.77;;;12.30;66.40;;;;;;5135978;27;20360;-83
2021/03/23 09:33:41;;;;;;;24.80;13.00;;;12.50;67.10;;;;;;5117431;27;20576;-83
2021/03/23 09:36:09;;;;;;;22.00;12.10;;;12.60;66.50;;;;;;5135317;27;20090;-83
2021/03/23 09:38:42;;;;;;;19.65;10.93;;;12.60;65.80;;;;;;5135267;27;20030;-83
2021/03/23 09:41:33;;;;;;;25.55;11.48;;;12.70;66.00;;;;;;5135476;27;20535;-83
2021/03/23 09:44:04;;;;;;;22.33;11.48;;;12.70;65.50;;;;;;5096863;28;20512;-83
2021/03/23 09:46:50;;;;;;;20.55;10.88;;;12.70;65.40;;;;;;5148342;27;20023;-83
2021/03/23 09:49:22;;;;;;;20.77;11.15;;;12.90;65.10;;;;;;5133460;27;20049;-83
2021/03/23 09:52:06;;;;;;;20.73;11.52;;;13.00;64.50;;;;;;5134869;27;20023;-83
2021/03/23 09:54:53;;;;;;;21.40;11.93;;;13.10;65.00;;;;;;5101417;27;20047;-83
2021/03/23 09:57:24;;;;;;;23.02;11.77;;;13.20;64.00;;;;;;5116196;27;20472;-83
2021/03/23 09:59:57;;;;;;;21.55;11.48;;;13.30;64.20;;;;;;5135439;27;20023;-82
2021/03/23 10:02:36;;;;;;;22.52;11.98;;;13.40;63.00;;;;;;5116968;27;20046;-83
2021/03/23 10:05:20;;;;;;;;;;;13.50;62.10;;;;;;5116688;27;20134;-83
2021/03/23 10:07:47;;;;;;;16.67;9.95;;;13.60;62.10;;;;;;5135365;27;19910;-83
2021/03/23 10:10:27;;;;;;;20.10;11.13;;;13.80;62.10;;;;;;5116610;27;20077;-84
2021/03/23 10:12:54;;;;;;;19.05;10.40;;;13.90;61.70;;;;;;5128665;27;20058;-83
2021/03/23 10:15:32;;;;;;;19.70;10.05;;;13.90;61.40;;;;;;5116713;27;20027;-83
2021/03/23 10:18:33;;;;;;;17.48;10.30;;;14.00;61.50;;;;;;5112640;28;20030;-84
2021/03/23 10:21:06;;;;;;;15.95;9.80;;;14.00;61.20;;;;;;5064487;28;20032;-83
2021/03/23 10:23:32;;;;;;;17.42;10.13;;;13.90;60.50;;;;;;5103108;27;20020;-83
2021/03/23 10:26:02;;;;;;;19.33;9.70;;;13.80;60.80;;;;;;5116594;27;20023;-83
2021/03/23 10:28:51;;;;;;;14.90;9.23;;;13.80;61.20;;;;;;5116531;27;20495;-84
2021/03/23 10:31:51;;;;;;;17.70;9.93;;;13.80;61.50;;;;;;5106202;28;20093;-84
2021/03/23 10:34:31;;;;;;;15.95;9.77;;;13.70;61.30;;;;;;5059871;28;20496;-84
2021/03/23 10:37:02;;;;;;;16.65;9.68;;;13.70;61.60;;;;;;5114325;28;20047;-84
2021/03/23 10:39:33;;;;;;;15.55;9.32;;;13.80;61.30;;;;;;5115097;27;20025;-86
2021/03/23 10:42:12;;;;;;;22.08;11.05;;;13.90;61.00;;;;;;5134636;27;20027;-84
2021/03/23 10:44:38;;;;;;;18.77;10.95;;;13.90;60.20;;;;;;5134483;27;20043;-83
2021/03/23 10:47:03;;;;;;;18.55;10.57;;;13.90;60.50;;;;;;5115209;27;20051;-83
2021/03/23 10:49:33;;;;;;;20.52;10.52;;;13.80;60.20;;;;;;5116030;27;20066;-84
2021/03/23 10:52:17;;;;;;;20.60;10.80;;;13.80;60.20;;;;;;5134451;27;20023;-83
2021/03/23 10:54:43;;;;;;;18.00;10.25;;;13.80;60.20;;;;;;5134226;27;20028;-83
2021/03/23 10:57:25;;;;;;;22.13;11.27;;;13.80;59.50;;;;;;5099304;27;20118;-84
2021/03/23 10:59:51;;;;;;;17.98;9.85;;;13.80;59.20;;;;;;5116000;27;20023;-83
2021/03/23 11:02:29;;;;;;;16.50;10.13;;;13.80;59.80;;;;;;5115617;28;20114;-84
2021/03/23 11:05:13;;;;;;;22.63;10.60;;;14.00;59.90;;;;;;5115319;27;20049;-83
2021/03/23 11:07:45;;;;;;;19.40;10.80;;;14.20;58.80;;;;;;5115761;27;20491;-83
2021/03/23 11:10:12;;;;;;;17.55;10.75;;;14.20;58.50;;;;;;5133888;27;20106;-83
2021/03/23 11:12:38;;;;;;;20.38;11.48;;;14.20;58.60;;;;;;5115781;28;20030;-83
2021/03/23 11:15:05;;;;;;;20.40;11.02;;;14.20;58.30;;;;;;5099067;28;20031;-84
2021/03/23 11:17:37;;;;;;;22.65;11.88;;;14.20;58.60;;;;;;5115370;28;20029;-84
2021/03/23 11:20:33;;;;;;;21.67;11.43;;;14.30;58.50;;;;;;5117629;27;20467;-84
2021/03/23 11:23:02;;;;;;;20.67;10.93;;;14.40;58.00;;;;;;5143026;27;20490;-85
2021/03/23 11:25:28;;;;;;;19.33;11.63;;;14.40;58.40;;;;;;5099413;28;20034;-84
2021/03/23 11:27:54;;;;;;;20.85;11.75;;;14.40;57.80;;;;;;5098851;28;20035;-84
2021/03/23 11:30:21;;;;;;;18.10;11.65;;;14.40;57.80;;;;;;5094946;28;20032;-84
2021/03/23 11:32:47;;;;;;;20.27;10.98;;;14.40;56.80;;;;;;5095359;28;20024;-84
2021/03/23 11:35:13;;;;;;;24.77;11.85;;;14.50;57.30;;;;;;5095617;28;20383;-84
2021/03/23 11:37:39;;;;;;;14.10;9.10;;;14.60;56.90;;;;;;5112177;28;20031;-84
2021/03/23 11:40:08;;;;;;;20.80;11.05;;;14.60;56.80;;;;;;5081841;28;20032;-84
2021/03/23 11:42:40;;;;;;;;;;;14.60;56.90;;;;;;5115989;28;20554;-85
2021/03/23 11:45:24;;;;;;;25.00;11.02;;;14.50;56.10;;;;;;5115781;28;20320;-85
2021/03/23 11:48:12;;;;;;;17.77;9.95;;;14.40;56.50;;;;;;5133827;28;20023;-84
2021/03/23 11:50:41;;;;;;;20.17;10.02;;;14.50;56.60;;;;;;5115287;28;20131;-84
2021/03/23 11:53:07;;;;;;;21.15;10.48;;;14.70;56.10;;;;;;5133784;28;20023;-83
2021/03/23 11:55:44;;;;;;;18.58;11.57;;;14.70;56.60;;;;;;5115813;28;20042;-83
2021/03/23 11:58:11;;;;;;;18.15;9.15;;;14.90;55.60;;;;;;5135444;27;20357;-84
2021/03/23 12:00:37;;;;;;;19.33;10.00;;;15.00;55.70;;;;;;5119191;27;20027;-84
2021/03/23 12:03:06;;;;;;;16.65;9.43;;;15.30;55.70;;;;;;5137782;27;20383;-83
2021/03/23 12:05:34;;;;;;;;;;;15.50;55.00;;;;;;5137634;27;20090;-84
2021/03/23 12:08:09;;;;;;;16.30;9.48;;;15.50;54.40;;;;;;5119289;27;19995;-83
2021/03/23 12:11:02;;;;;;;19.08;9.85;;;15.60;53.90;;;;;;5137616;27;20023;-83
2021/03/23 12:14:22;;;;;;;20.27;10.85;;;15.70;54.30;;;;;;5118788;27;20023;-85
2021/03/23 12:16:56;;;;;;;16.55;9.52;;;15.80;52.50;;;;;;5040675;28;20033;-84
2021/03/23 12:19:24;;;;;;;24.42;12.38;;;15.90;54.70;;;;;;5116235;27;20039;-77
2021/03/23 12:21:51;;;;;;;20.30;11.73;;;15.80;50.90;;;;;;5136681;27;20016;-77
2021/03/23 12:24:21;;;;;;;20.92;9.73;;;15.50;52.20;;;;;;5137058;27;20019;-76
2021/03/23 12:26:47;;;;;;;15.75;9.95;;;15.30;53.20;;;;;;5118410;27;20064;-76
2021/03/23 12:29:12;;;;;;;16.13;10.13;;;15.40;53.70;;;;;;5101229;27;20066;-77
2021/03/23 12:31:38;;;;;;;19.13;11.07;;;15.50;53.80;;;;;;5101077;27;20023;-77
2021/03/23 12:34:03;;;;;;;22.85;12.27;;;15.40;53.40;;;;;;5118529;27;20026;-77
2021/03/23 12:36:29;;;;;;;15.38;10.15;;;15.10;52.50;;;;;;5118597;27;20027;-77
2021/03/23 12:38:55;;;;;;;18.25;10.35;;;15.00;53.90;;;;;;5118809;27;20027;-77
2021/03/23 12:41:33;;;;;;;22.02;12.55;;;15.30;54.20;;;;;;5137100;27;20098;-77
2021/03/23 12:44:00;;;;;;;24.92;12.13;;;15.40;51.80;;;;;;5136976;27;20475;-77
2021/03/23 12:46:26;;;;;;;16.67;9.70;;;15.20;53.30;;;;;;5118803;27;20088;-77
2021/03/23 12:48:51;;;;;;;19.48;10.95;;;15.20;54.00;;;;;;5136627;27;20058;-77
2021/03/23 12:51:29;;;;;;;23.38;11.55;;;15.30;54.20;;;;;;5136934;27;20024;-77
2021/03/23 12:53:55;;;;;;;19.30;11.23;;;15.50;52.80;;;;;;5136620;27;20019;-77
2021/03/23 12:56:21;;;;;;;18.10;10.77;;;15.70;52.60;;;;;;5118259;27;20499;-77
2021/03/23 12:58:48;;;;;;;20.23;11.95;;;15.70;51.60;;;;;;5118396;27;20027;-77
2021/03/23 13:01:17;;;;;;;22.05;12.52;;;15.70;51.60;;;;;;5136351;27;20030;-77
2021/03/23 13:03:43;;;;;;;18.58;10.85;;;15.70;51.90;;;;;;5118409;27;20026;-77
2021/03/23 13:06:15;;;;;;;19.95;12.85;;;15.50;51.80;;;;;;5117757;27;20484;-77